Terminal Aerodrome Forecast
Issued by NWS

Home | Current Version | Previous Version | Graphics & Text | Print | Product List | Glossary On
Versions: 1 2 3 4 5 6 7 8 9 10 11 12 13 14 15 16 17 18 19 20 21 22 23 24 25 26 27 28 29 30 31 32 33
000
FTUS43 KLOT 270200 AAA
TAFORD
TAF AMD
KORD 270200Z 2702/2806 06006KT P6SM SCT150 BKN200
     FM270430 09005KT P6SM VCSH OVC060
     FM270600 11005KT 4SM -SHRA VCTS OVC030CB
      TEMPO 2708/2712 2SM TSRA OVC025CB
     FM271400 16007KT P6SM BKN025
     FM271700 20009KT P6SM SCT035 BKN200=

USA.gov is the U.S. government's official web portal to all federal, state and local government web resources and services.